Weather at McCarran International Airport

Public forecast

Using degrees Fahrenheit for public forecast. Weather courtesy of forecast.io.

Current aviation weather report (METAR) for McCarran International Airport

Retrieved 2021/10/22 06:56 UTC (16 minutes ago):

KLAS 220656Z 23004KT 10SM BKN250 17/M01 A3008 RMK AO2 SLP172 T01721006

Aviation forecast (TAF) for McCarran International Airport

Retrieved 2021/10/22 06:22 UTC (50 minutes ago):

TAF KLAS 220520Z 2206/2312 26006KT P6SM BKN250 FM221400 VRB03KT P6SM BKN250 FM221900 15008KT P6SM BKN250 FM222300 20012G20KT P6SM BKN250 FM230300 20011KT P6SM BKN250